Time;durP1;ratioP1;P1;durP2;ratioP2;P2;SDS_P1;SDS_P2;PMS_P1;PMS_P2;Temp;Humidity;BMP_temperature;BMP_pressure;BME280_temperature;BME280_humidity;BME280_pressure;Samples;Min_cycle;Max_cycle;Signal;HPM_P1;HPM_P2
2021/11/01 00:00:35;;;;;;;;;;;;;;;19.25;68.41;99014.50;2082876;28;20019;-68
2021/11/01 00:01:36;;;;;;;;;;;;;;;19.26;68.39;99021.69;2083622;28;19924;-69
2021/11/01 00:02:37;;;;;;;;;;;;;;;19.26;68.52;99016.22;2083861;28;19916;-68
2021/11/01 00:03:38;;;;;;;;;;;;;;;19.27;68.46;99011.59;2081706;28;19921;-69
2021/11/01 00:04:40;;;;;;;;;;;;;;;19.25;68.42;99009.03;2085530;28;20322;-68
2021/11/01 00:05:40;;;;;;;;;;;;;;;19.26;68.44;99007.16;2083708;28;20566;-69
2021/11/01 00:06:41;;;;;;;;;;;;;;;19.26;68.32;99004.44;2080392;28;19947;-69
2021/11/01 00:07:41;;;;;;;;;;;;;;;19.26;68.48;99005.28;2073939;28;19909;-69
2021/11/01 00:08:42;;;;;;;;;;;;;;;19.26;68.40;99002.56;2080154;28;19908;-68
2021/11/01 00:09:42;;;;;;;;;;;;;;;19.25;68.27;99003.56;2084676;28;20413;-69
2021/11/01 00:10:43;;;;;;;;;;;;;;;19.26;68.35;99007.16;2081140;28;19909;-69
2021/11/01 00:11:43;;;;;;;;;;;;;;;19.25;68.38;98998.09;2083347;28;19909;-69
2021/11/01 00:12:46;;;;;;;;;;;;;;;19.26;68.35;99004.44;2082790;28;20383;-69
2021/11/01 00:13:46;;;;;;;;;;;;;;;19.26;68.44;98998.97;2080035;28;20357;-69
2021/11/01 00:14:46;;;;;;;;;;;;;;;19.25;68.41;99000.84;2076353;28;20263;-69
2021/11/01 00:15:47;;;;;;;;;;;;;;;19.25;68.42;99003.56;2073501;28;19927;-69
2021/11/01 00:16:47;;;;;;;;;;;;;;;19.24;68.39;99007.34;2085681;28;19957;-68
2021/11/01 00:17:47;;;;;;;;;;;;;;;19.26;68.31;99008.03;2081746;28;19991;-68
2021/11/01 00:18:48;;;;;;;;;;;;;;;19.25;68.51;99008.19;2082234;28;19939;-68
2021/11/01 00:19:48;;;;;;;;;;;;;;;19.25;68.47;99011.75;2074086;28;20415;-68
2021/11/01 00:20:49;;;;;;;;;;;;;;;19.24;68.36;99018.28;2074788;28;19927;-69
2021/11/01 00:21:49;;;;;;;;;;;;;;;19.26;68.54;99021.69;2079374;28;20008;-67
2021/11/01 00:22:50;;;;;;;;;;;;;;;19.24;68.46;99006.50;2082275;28;19909;-68
2021/11/01 00:23:51;;;;;;;;;;;;;;;19.24;68.42;99012.81;2080944;28;19920;-67
2021/11/01 00:24:52;;;;;;;;;;;;;;;19.25;68.46;99014.50;2085742;28;20364;-68
2021/11/01 00:25:52;;;;;;;;;;;;;;;19.24;68.45;99012.81;2083449;28;19916;-68
2021/11/01 00:26:53;;;;;;;;;;;;;;;19.24;68.36;99006.50;2081476;28;20456;-67
2021/11/01 00:27:55;;;;;;;;;;;;;;;19.24;68.41;99012.81;2076335;28;19916;-68
2021/11/01 00:28:55;;;;;;;;;;;;;;;19.25;68.40;99010.91;2080498;28;20392;-67
2021/11/01 00:29:56;;;;;;;;;;;;;;;19.24;68.39;99012.81;2078200;28;19921;-67
2021/11/01 00:30:56;;;;;;;;;;;;;;;19.24;68.26;98996.41;2075671;28;19924;-68
2021/11/01 00:31:57;;;;;;;;;;;;;;;19.24;68.39;98999.13;2085315;28;19920;-67
2021/11/01 00:32:57;;;;;;;;;;;;;;;19.24;68.35;98990.94;2089439;28;19939;-68
2021/11/01 00:33:57;;;;;;;;;;;;;;;19.25;68.40;98989.06;2083993;28;19923;-68
2021/11/01 00:34:59;;;;;;;;;;;;;;;19.25;68.35;98992.63;2084243;28;19923;-68
2021/11/01 00:36:00;;;;;;;;;;;;;;;19.24;68.29;98990.94;2076832;28;20728;-67
2021/11/01 00:37:00;;;;;;;;;;;;;;;19.23;68.12;98983.78;2067540;28;19921;-68
2021/11/01 00:38:00;;;;;;;;;;;;;;;19.23;68.13;98986.53;2077816;28;19919;-68
2021/11/01 00:39:01;;;;;;;;;;;;;;;19.22;68.24;98984.81;2079594;28;19909;-68
2021/11/01 00:40:02;;;;;;;;;;;;;;;19.21;68.28;98985.84;2081228;28;20895;-69
2021/11/01 00:41:03;;;;;;;;;;;;;;;19.22;68.20;98989.41;2079076;28;20011;-68
2021/11/01 00:42:04;;;;;;;;;;;;;;;19.20;68.13;98984.13;2083253;28;19921;-68
2021/11/01 00:43:05;;;;;;;;;;;;;;;19.20;68.18;98995.06;2087202;28;20015;-68
2021/11/01 00:44:05;;;;;;;;;;;;;;;19.19;68.14;98985.16;2075712;28;19962;-68
2021/11/01 00:45:06;;;;;;;;;;;;;;;19.19;68.25;98990.63;2076274;28;19988;-68
2021/11/01 00:46:06;;;;;;;;;;;;;;;19.20;68.09;98986.00;2081033;28;19944;-68
2021/11/01 00:47:06;;;;;;;;;;;;;;;19.20;68.05;98986.84;2085593;28;20042;-68
2021/11/01 00:48:07;;;;;;;;;;;;;;;19.19;68.09;98981.59;2085772;28;19916;-68
2021/11/01 00:49:07;;;;;;;;;;;;;;;19.19;68.16;98984.31;2085902;28;19975;-68
2021/11/01 00:50:08;;;;;;;;;;;;;;;19.18;68.24;98983.47;2085081;28;20736;-68
2021/11/01 00:51:08;;;;;;;;;;;;;;;19.18;68.20;98986.22;2082037;28;20184;-68
2021/11/01 00:52:09;;;;;;;;;;;;;;;19.18;68.13;98991.66;2081346;28;20531;-68
2021/11/01 00:53:09;;;;;;;;;;;;;;;19.18;68.23;98986.22;2086389;28;19912;-68
2021/11/01 00:54:12;;;;;;;;;;;;;;;19.18;68.15;98986.22;2085768;28;19915;-68
2021/11/01 00:55:21;;;;;;;;;;;;;;;19.18;68.17;98996.25;2083220;28;20009;-68
2021/11/01 00:56:21;;;;;;;;;;;;;;;19.18;68.17;98997.13;2084973;28;20302;-68
2021/11/01 00:57:22;;;;;;;;;;;;;;;19.17;68.12;98995.41;2086219;28;20003;-68
2021/11/01 00:58:23;;;;;;;;;;;;;;;19.18;68.10;98996.25;2086171;28;19986;-68
2021/11/01 00:59:23;;;;;;;;;;;;;;;19.17;68.12;98989.94;2080728;28;19917;-68
2021/11/01 01:00:23;;;;;;;;;;;;;;;19.17;68.11;98989.09;2085145;28;20416;-68
2021/11/01 01:01:24;;;;;;;;;;;;;;;19.17;68.16;98995.41;2086197;28;19992;-68
2021/11/01 01:02:26;;;;;;;;;;;;;;;19.17;68.13;98994.56;2080659;28;20810;-68
2021/11/01 01:03:26;;;;;;;;;;;;;;;19.17;68.10;98995.41;2086282;28;20417;-68
2021/11/01 01:04:26;;;;;;;;;;;;;;;19.16;68.19;98987.41;2083391;28;19916;-68
2021/11/01 01:05:27;;;;;;;;;;;;;;;19.16;68.11;98985.53;2081337;28;19916;-68
2021/11/01 01:06:28;;;;;;;;;;;;;;;19.16;68.16;98988.25;2080163;28;20445;-69
2021/11/01 01:07:28;;;;;;;;;;;;;;;19.15;67.92;98983.81;2077983;28;19921;-69
2021/11/01 01:08:29;;;;;;;;;;;;;;;19.15;68.11;98986.53;2077655;28;20020;-69
2021/11/01 01:09:29;;;;;;;;;;;;;;;19.16;68.08;98991.00;2082405;28;19916;-68
2021/11/01 01:10:29;;;;;;;;;;;;;;;19.16;68.17;98993.72;2084435;28;19928;-69
2021/11/01 01:11:30;;;;;;;;;;;;;;;19.15;68.00;98992.00;2080520;28;19924;-68
2021/11/01 01:12:30;;;;;;;;;;;;;;;19.16;68.09;98987.41;2086080;28;19924;-69
2021/11/01 01:13:36;;;;;;;;;;;;;;;19.15;68.10;98983.81;2082751;28;20453;-69
2021/11/01 01:14:45;;;;;;;;;;;;;;;19.15;68.13;98981.06;2085161;28;19920;-69
2021/11/01 01:16:10;;;;;;;;;;;;;;;19.14;67.88;98982.13;2087027;28;20348;-69
2021/11/01 01:17:10;;;;;;;;;;;;;;;19.14;68.12;98973.06;2086873;28;20012;-69
2021/11/01 01:18:18;;;;;;;;;;;;;;;19.15;68.03;98975.59;2084272;28;19913;-68
2021/11/01 01:19:22;;;;;;;;;;;;;;;19.15;68.07;98974.75;2076014;28;19924;-69
2021/11/01 01:20:23;;;;;;;;;;;;;;;19.14;68.11;98965.72;2077521;28;19912;-69
2021/11/01 01:22:43;;;;;;;;;;;;;;;19.14;68.13;98963.00;2082650;28;19920;-68
2021/11/01 01:23:43;;;;;;;;;;;;;;;19.14;68.10;98960.25;2083071;28;20034;-69
2021/11/01 01:24:44;;;;;;;;;;;;;;;19.13;68.06;98961.28;2086110;28;19962;-69
2021/11/01 01:25:46;;;;;;;;;;;;;;;19.13;68.05;98966.75;2083698;28;20628;-66
2021/11/01 01:26:53;;;;;;;;;;;;;;;19.13;68.10;98966.75;2084688;28;19916;-66
2021/11/01 01:27:54;;;;;;;;;;;;;;;19.12;68.07;98965.03;2080587;28;19920;-66
2021/11/01 01:28:54;;;;;;;;;;;;;;;19.13;68.10;98961.28;2074014;28;20021;-66
2021/11/01 01:29:55;;;;;;;;;;;;;;;19.12;68.09;98970.50;2076575;28;19916;-66
2021/11/01 01:30:57;;;;;;;;;;;;;;;19.13;67.98;98964.00;2083778;28;19924;-66
2021/11/01 01:31:57;;;;;;;;;;;;;;;19.13;68.12;98960.44;2083570;28;19927;-65
2021/11/01 01:32:57;;;;;;;;;;;;;;;19.13;68.14;98961.28;2083379;28;19954;-66
2021/11/01 01:33:59;;;;;;;;;;;;;;;19.13;68.16;98958.53;2084780;28;19999;-66
2021/11/01 01:34:59;;;;;;;;;;;;;;;19.12;68.06;98956.84;2082164;28;19920;-65
2021/11/01 01:35:59;;;;;;;;;;;;;;;19.12;68.07;98954.13;2075156;28;19916;-68
2021/11/01 01:37:00;;;;;;;;;;;;;;;19.12;67.99;98948.66;2075658;28;20017;-66
2021/11/01 01:38:00;;;;;;;;;;;;;;;19.12;67.99;98947.81;2084713;28;20452;-65
2021/11/01 01:39:00;;;;;;;;;;;;;;;19.12;68.06;98943.19;2082291;28;20441;-65
2021/11/01 01:40:01;;;;;;;;;;;;;;;19.12;68.00;98943.19;2082475;28;19917;-65
2021/11/01 01:41:22;;;;;;;;;;;;;;;19.12;68.01;98943.19;2082221;28;20280;-66
2021/11/01 01:42:23;;;;;;;;;;;;;;;19.11;67.97;98936.03;2083234;28;19948;-65
2021/11/01 01:43:23;;;;;;;;;;;;;;;19.12;68.08;98940.47;2079618;28;19924;-66
2021/11/01 01:44:24;;;;;;;;;;;;;;;19.11;67.99;98944.25;2080936;28;20383;-67
2021/11/01 01:45:24;;;;;;;;;;;;;;;19.10;68.07;98945.25;2084761;28;19916;-66
2021/11/01 01:46:25;;;;;;;;;;;;;;;19.11;68.07;98940.63;2077649;28;20725;-66
2021/11/01 01:47:25;;;;;;;;;;;;;;;19.12;67.99;98942.34;2082156;28;19924;-65
2021/11/01 01:48:26;;;;;;;;;;;;;;;19.11;68.09;98944.25;2082101;28;19912;-67
2021/11/01 01:49:26;;;;;;;;;;;;;;;19.11;67.98;98946.97;2080435;28;19921;-66
2021/11/01 01:50:27;;;;;;;;;;;;;;;19.10;68.11;98945.25;2083421;28;19920;-66
2021/11/01 01:51:28;;;;;;;;;;;;;;;19.10;68.03;98939.78;2080959;28;20847;-66
2021/11/01 01:52:30;;;;;;;;;;;;;;;19.10;67.95;98950.72;2082090;28;20724;-66
2021/11/01 01:53:30;;;;;;;;;;;;;;;19.10;67.99;98945.25;2086343;28;19956;-67
2021/11/01 01:54:30;;;;;;;;;;;;;;;19.10;67.88;98947.97;2084251;28;19912;-65
2021/11/01 01:55:31;;;;;;;;;;;;;;;19.10;67.99;98950.72;2083385;28;20796;-66
2021/11/01 01:56:31;;;;;;;;;;;;;;;19.10;67.99;98950.72;2080261;28;19975;-65
2021/11/01 01:57:32;;;;;;;;;;;;;;;19.10;67.96;98949.88;2078140;28;19916;-66
2021/11/01 01:58:34;;;;;;;;;;;;;;;19.10;68.05;98947.97;2075184;28;19917;-66
2021/11/01 01:59:35;;;;;;;;;;;;;;;19.09;67.96;98943.56;2085389;28;20014;-66
2021/11/01 02:01:03;;;;;;;;;;;;;;;19.10;68.05;98949.88;2083929;28;19917;-65
2021/11/01 02:02:04;;;;;;;;;;;;;;;19.09;67.89;98943.56;2090023;28;19912;-65
2021/11/01 02:03:04;;;;;;;;;;;;;;;19.10;68.02;98947.97;2081195;28;20237;-64
2021/11/01 02:04:04;;;;;;;;;;;;;;;19.09;68.02;98946.28;2075641;28;20411;-65
2021/11/01 02:05:06;;;;;;;;;;;;;;;19.10;67.98;98939.78;2081444;28;20016;-65
2021/11/01 02:06:12;;;;;;;;;;;;;;;19.10;67.99;98941.66;2085852;28;19952;-65
2021/11/01 02:07:22;;;;;;;;;;;;;;;19.09;67.92;98935.38;2075027;28;19925;-65
2021/11/01 02:08:23;;;;;;;;;;;;;;;19.08;68.09;98930.91;2077042;28;19917;-65
2021/11/01 02:09:28;;;;;;;;;;;;;;;19.09;68.03;98938.09;2084535;28;20603;-65
2021/11/01 02:10:31;;;;;;;;;;;;;;;19.10;67.87;98938.94;2083857;28;19920;-66
2021/11/01 02:11:37;;;;;;;;;;;;;;;19.09;67.93;98934.53;2083103;28;20116;-66
2021/11/01 02:12:48;;;;;;;;;;;;;;;19.08;68.04;98930.91;2089947;28;19923;-66
2021/11/01 02:13:50;;;;;;;;;;;;;;;19.08;67.98;98930.91;2084813;28;20268;-65
2021/11/01 02:14:56;;;;;;;;;;;;;;;19.08;67.94;98930.91;2083652;28;19938;-66
2021/11/01 02:15:58;;;;;;;;;;;;;;;19.08;68.02;98933.66;2084478;28;19921;-67
2021/11/01 02:17:00;;;;;;;;;;;;;;;19.09;67.96;98931.78;2085084;28;19995;-66
2021/11/01 02:18:01;;;;;;;;;;;;;;;19.08;68.09;98928.19;2081617;28;19917;-66
2021/11/01 02:19:08;;;;;;;;;;;;;;;19.09;67.86;98931.78;2084693;28;21628;-66
2021/11/01 02:20:10;;;;;;;;;;;;;;;19.08;68.02;98925.44;2085122;28;20392;-65
2021/11/01 02:21:16;;;;;;;;;;;;;;;19.08;68.06;98930.91;2081575;28;19927;-66
2021/11/01 02:22:20;;;;;;;;;;;;;;;19.07;67.99;98926.50;2068854;28;19927;-66
2021/11/01 02:23:25;;;;;;;;;;;;;;;19.08;68.00;98930.06;2075629;28;20359;-66
2021/11/01 02:24:30;;;;;;;;;;;;;;;19.08;68.07;98936.38;2084578;28;19927;-66
2021/11/01 02:25:33;;;;;;;;;;;;;;;19.08;68.00;98936.38;2079153;28;20286;-66
2021/11/01 02:26:34;;;;;;;;;;;;;;;19.08;67.95;98935.53;2084586;28;19923;-66
2021/11/01 02:27:37;;;;;;;;;;;;;;;19.08;68.02;98933.66;2081472;28;19908;-66
2021/11/01 02:28:39;;;;;;;;;;;;;;;19.07;67.99;98934.69;2084564;28;19923;-65
2021/11/01 02:29:43;;;;;;;;;;;;;;;19.08;67.96;98936.38;2083330;28;19971;-66
2021/11/01 02:30:44;;;;;;;;;;;;;;;19.08;68.02;98938.25;2075736;28;19920;-65
2021/11/01 02:31:45;;;;;;;;;;;;;;;19.08;68.07;98924.59;2071351;28;19916;-65
2021/11/01 02:32:46;;;;;;;;;;;;;;;19.07;68.02;98929.22;2085105;28;19925;-65
2021/11/01 02:33:47;;;;;;;;;;;;;;;19.07;68.13;98923.75;2082070;28;19936;-65
2021/11/01 02:34:48;;;;;;;;;;;;;;;19.07;67.97;98926.50;2084097;28;19916;-65
2021/11/01 02:35:50;;;;;;;;;;;;;;;19.07;68.00;98923.75;2073284;28;20008;-65
2021/11/01 02:36:50;;;;;;;;;;;;;;;19.07;68.07;98929.22;2066724;28;20656;-65
2021/11/01 02:37:50;;;;;;;;;;;;;;;19.06;67.97;98922.06;2076432;28;20865;-66
2021/11/01 02:38:51;;;;;;;;;;;;;;;19.07;68.03;98934.69;2083094;28;19920;-66
2021/11/01 02:39:53;;;;;;;;;;;;;;;19.07;68.12;98934.69;2085079;28;20500;-66
2021/11/01 02:40:54;;;;;;;;;;;;;;;19.06;67.99;98933.00;2082476;28;19920;-66
2021/11/01 02:41:54;;;;;;;;;;;;;;;19.08;68.02;98930.06;2083018;28;19952;-66
2021/11/01 02:42:55;;;;;;;;;;;;;;;19.06;67.99;98928.38;2083732;28;19920;-65
2021/11/01 02:43:57;;;;;;;;;;;;;;;19.06;68.03;98924.81;2083695;28;20325;-66
2021/11/01 02:45:02;;;;;;;;;;;;;;;19.06;68.05;98919.34;2074098;28;19956;-65
2021/11/01 02:46:03;;;;;;;;;;;;;;;19.06;68.03;98911.16;2075726;28;19917;-66
2021/11/01 02:47:04;;;;;;;;;;;;;;;19.06;67.97;98911.16;2080571;28;20775;-66
2021/11/01 02:48:04;;;;;;;;;;;;;;;19.06;67.97;98911.16;2082675;28;20220;-66
2021/11/01 02:49:05;;;;;;;;;;;;;;;19.05;67.96;98904.81;2079374;28;19925;-66
2021/11/01 02:50:07;;;;;;;;;;;;;;;19.06;68.01;98892.03;2069278;28;19936;-66
2021/11/01 02:51:07;;;;;;;;;;;;;;;19.04;67.98;98881.28;2068171;28;19970;-66
2021/11/01 02:52:07;;;;;;;;;;;;;;;19.05;67.99;98882.13;2084459;28;19958;-65
2021/11/01 02:53:08;;;;;;;;;;;;;;;19.05;67.97;98882.13;2079406;28;19916;-65
2021/11/01 02:54:09;;;;;;;;;;;;;;;19.04;68.05;98881.28;2081326;28;19916;-65
2021/11/01 02:55:11;;;;;;;;;;;;;;;19.05;68.10;98887.56;2081461;28;19924;-65
2021/11/01 02:56:12;;;;;;;;;;;;;;;19.04;68.01;98869.50;2075378;28;19913;-66
2021/11/01 02:57:13;;;;;;;;;;;;;;;19.06;68.14;98883.84;2075775;28;20017;-66
2021/11/01 02:58:13;;;;;;;;;;;;;;;19.04;67.94;98874.97;2085278;28;19992;-65
2021/11/01 02:59:14;;;;;;;;;;;;;;;19.05;68.01;98879.38;2082258;28;19919;-66
2021/11/01 03:00:15;;;;;;;;;;;;;;;19.04;68.14;98881.28;2083614;28;19921;-66
2021/11/01 03:01:17;;;;;;;;;;;;;;;19.04;67.93;98875.81;2085472;28;20325;-66
2021/11/01 03:02:17;;;;;;;;;;;;;;;19.04;68.00;98861.31;2082756;28;19927;-65
2021/11/01 03:03:18;;;;;;;;;;;;;;;19.05;68.00;98865.72;2083753;28;19927;-66
2021/11/01 03:04:19;;;;;;;;;;;;;;;19.04;68.02;98864.88;2085199;28;20334;-66
2021/11/01 03:05:21;;;;;;;;;;;;;;;19.04;68.00;98864.03;2084443;28;20230;-66
2021/11/01 03:06:23;;;;;;;;;;;;;;;19.04;68.03;98861.31;2085224;28;19913;-66
2021/11/01 03:07:23;;;;;;;;;;;;;;;19.03;68.07;98860.47;2081465;28;20724;-65
2021/11/01 03:08:24;;;;;;;;;;;;;;;19.04;68.15;98862.16;2079939;28;20359;-65
2021/11/01 03:09:25;;;;;;;;;;;;;;;19.04;68.08;98858.56;2084581;28;20063;-66
2021/11/01 03:10:27;;;;;;;;;;;;;;;19.04;68.03;98853.13;2080448;28;19909;-65
2021/11/01 03:11:29;;;;;;;;;;;;;;;19.03;67.96;98851.41;2084655;28;19913;-66
2021/11/01 03:12:29;;;;;;;;;;;;;;;19.04;68.08;98858.56;2079833;28;19913;-66
2021/11/01 03:13:31;;;;;;;;;;;;;;;19.03;68.09;98857.72;2083428;28;19970;-65
2021/11/01 03:14:38;;;;;;;;;;;;;;;19.04;68.08;98864.03;2086577;28;19978;-65
2021/11/01 03:15:39;;;;;;;;;;;;;;;19.04;68.09;98855.84;2084657;28;20314;-66
2021/11/01 03:16:40;;;;;;;;;;;;;;;19.04;68.06;98864.03;2083315;28;19920;-66
2021/11/01 03:17:43;;;;;;;;;;;;;;;19.04;68.07;98858.56;2076348;28;20003;-66
2021/11/01 03:18:48;;;;;;;;;;;;;;;19.03;68.09;98863.19;2074414;28;19912;-66
2021/11/01 03:20:10;;;;;;;;;;;;;;;19.04;68.09;98853.13;2083775;28;20311;-66
2021/11/01 03:21:12;;;;;;;;;;;;;;;19.04;68.10;98858.56;2079809;28;19916;-66
2021/11/01 03:22:13;;;;;;;;;;;;;;;19.02;68.04;98861.47;2083728;28;19912;-66
2021/11/01 03:23:16;;;;;;;;;;;;;;;19.03;67.99;98862.31;2080629;28;19915;-66
2021/11/01 03:24:17;;;;;;;;;;;;;;;19.03;68.03;98856.84;2083793;28;19916;-66
2021/11/01 03:25:23;;;;;;;;;;;;;;;19.02;68.01;98855.16;2079152;28;19920;-66
2021/11/01 03:26:24;;;;;;;;;;;;;;;19.03;68.13;98856.84;2080066;28;19920;-66
2021/11/01 03:27:25;;;;;;;;;;;;;;;19.03;68.08;98855.00;2084851;28;20178;-66
2021/11/01 03:28:25;;;;;;;;;;;;;;;19.03;68.07;98862.31;2082939;28;19925;-66
2021/11/01 03:29:27;;;;;;;;;;;;;;;19.02;68.05;98855.16;2082651;28;19916;-66
2021/11/01 03:30:28;;;;;;;;;;;;;;;19.03;67.98;98862.31;2084461;28;19946;-66
2021/11/01 03:31:29;;;;;;;;;;;;;;;19.02;68.05;98858.75;2082101;28;19921;-66
2021/11/01 03:32:30;;;;;;;;;;;;;;;19.03;68.08;98851.41;2084232;28;19916;-66
2021/11/01 03:33:37;;;;;;;;;;;;;;;19.03;68.05;98851.41;2081129;28;20316;-66
2021/11/01 03:34:38;;;;;;;;;;;;;;;19.02;67.95;98852.44;2081130;28;19916;-66
2021/11/01 03:35:39;;;;;;;;;;;;;;;19.03;68.02;98848.66;2084161;28;19966;-66
2021/11/01 03:36:40;;;;;;;;;;;;;;;19.03;68.08;98851.41;2083725;28;19920;-66
2021/11/01 03:37:44;;;;;;;;;;;;;;;19.03;67.93;98856.84;2083791;28;19924;-67
2021/11/01 03:38:45;;;;;;;;;;;;;;;19.03;68.01;98845.94;2085748;28;20081;-66
2021/11/01 03:39:47;;;;;;;;;;;;;;;19.01;68.03;98848.88;2081488;28;20156;-66
2021/11/01 03:40:48;;;;;;;;;;;;;;;19.02;68.03;98846.97;2083331;28;20519;-66
2021/11/01 03:41:49;;;;;;;;;;;;;;;19.02;67.84;98849.72;2085474;28;19920;-66
2021/11/01 03:42:52;;;;;;;;;;;;;;;19.02;68.03;98846.97;2083103;28;19922;-67
2021/11/01 03:43:59;;;;;;;;;;;;;;;19.01;67.95;98843.41;2083320;28;19916;-66
2021/11/01 03:45:03;;;;;;;;;;;;;;;19.02;68.03;98855.16;2078320;28;20341;-66
2021/11/01 03:46:05;;;;;;;;;;;;;;;19.02;68.04;98857.91;2082953;28;19940;-66
2021/11/01 03:47:06;;;;;;;;;;;;;;;19.03;68.05;98862.31;2083049;28;19916;-66
2021/11/01 03:48:09;;;;;;;;;;;;;;;19.02;68.06;98860.63;2085897;28;19923;-66
2021/11/01 03:49:09;;;;;;;;;;;;;;;19.02;68.04;98858.75;2079823;28;19917;-66
2021/11/01 03:52:41;;;;;;;;;;;;;;;19.02;68.03;98849.72;2078737;28;20421;-66
2021/11/01 03:53:42;;;;;;;;;;;;;;;19.02;68.04;98852.44;2082841;28;19916;-66
2021/11/01 03:54:43;;;;;;;;;;;;;;;19.01;68.06;98848.00;2080132;28;19909;-66
2021/11/01 03:55:44;;;;;;;;;;;;;;;19.01;68.10;98848.00;2082935;28;20667;-66
2021/11/01 03:56:44;;;;;;;;;;;;;;;19.01;68.00;98846.13;2082157;28;20050;-66
2021/11/01 03:57:45;;;;;;;;;;;;;;;19.02;68.13;98850.56;2080195;28;19913;-66
2021/11/01 03:58:45;;;;;;;;;;;;;;;19.01;68.03;98859.78;2083397;28;19963;-66
2021/11/01 03:59:46;;;;;;;;;;;;;;;19.01;68.00;98859.78;2074483;28;20027;-67
2021/11/01 04:00:47;;;;;;;;;;;;;;;19.01;68.06;98859.78;2074407;28;19917;-66
2021/11/01 04:01:48;;;;;;;;;;;;;;;19.01;68.09;98864.38;2084321;28;19954;-66
2021/11/01 04:02:48;;;;;;;;;;;;;;;19.01;68.08;98865.25;2083994;28;20332;-66
2021/11/01 04:03:49;;;;;;;;;;;;;;;19.02;68.11;98871.56;2083711;28;19909;-65
2021/11/01 04:04:51;;;;;;;;;;;;;;;19.02;68.09;98866.09;2077105;28;19935;-66
2021/11/01 04:05:56;;;;;;;;;;;;;;;19.01;68.12;98864.38;2082793;28;19911;-66
2021/11/01 04:06:58;;;;;;;;;;;;;;;19.01;68.11;98867.97;2085669;28;20100;-65
2021/11/01 04:07:58;;;;;;;;;;;;;;;19.01;68.06;98867.97;2083198;28;19924;-66
2021/11/01 04:08:59;;;;;;;;;;;;;;;19.00;68.00;98858.06;2082458;28;21224;-65
2021/11/01 04:10:00;;;;;;;;;;;;;;;19.01;68.07;98858.91;2085385;28;19916;-65
2021/11/01 04:11:01;;;;;;;;;;;;;;;19.01;68.03;98869.84;2083732;28;19912;-66
2021/11/01 04:12:01;;;;;;;;;;;;;;;19.00;68.03;98863.53;2083943;28;19945;-67
2021/11/01 04:13:02;;;;;;;;;;;;;;;19.01;68.11;98864.38;2083265;28;20043;-66
2021/11/01 04:14:07;;;;;;;;;;;;;;;19.01;68.06;98864.38;2083963;28;19921;-66
2021/11/01 04:15:23;;;;;;;;;;;;;;;19.01;68.00;98867.09;2084396;28;20418;-66
2021/11/01 04:16:27;;;;;;;;;;;;;;;19.01;68.09;98865.25;2082276;28;20767;-66
2021/11/01 04:18:50;;;;;;;;;;;;;;;19.00;68.07;98862.69;2084001;28;19912;-66
2021/11/01 04:21:09;;;;;;;;;;;;;;;18.99;67.99;98861.84;2082418;28;19917;-66
2021/11/01 04:22:10;;;;;;;;;;;;;;;18.99;68.14;98861.84;2073368;28;19917;-66
2021/11/01 04:23:12;;;;;;;;;;;;;;;19.00;68.08;98868.16;2073790;28;20570;-66
2021/11/01 04:24:13;;;;;;;;;;;;;;;18.99;67.97;98861.00;2082125;28;19916;-66
2021/11/01 04:25:13;;;;;;;;;;;;;;;18.99;68.15;98856.38;2085564;28;20364;-66
2021/11/01 04:26:16;;;;;;;;;;;;;;;18.99;68.25;98863.72;2076059;28;19912;-66
2021/11/01 04:27:16;;;;;;;;;;;;;;;18.98;68.13;98860.13;2074828;28;19917;-65
2021/11/01 04:28:16;;;;;;;;;;;;;;;19.00;68.10;98862.69;2085264;28;19981;-65
2021/11/01 04:29:17;;;;;;;;;;;;;;;19.00;68.07;98865.41;2084783;28;20101;-65
2021/11/01 04:30:18;;;;;;;;;;;;;;;18.99;68.11;98867.31;2083644;28;20278;-66
2021/11/01 04:31:29;;;;;;;;;;;;;;;18.99;68.15;98867.31;2083241;28;19916;-66
2021/11/01 04:33:34;;;;;;;;;;;;;;;18.99;68.08;98869.19;2084072;28;19912;-66
2021/11/01 04:34:37;;;;;;;;;;;;;;;19.00;68.08;98870.88;2083870;28;19924;-65
2021/11/01 04:35:39;;;;;;;;;;;;;;;18.99;68.08;98875.50;2078916;28;20610;-65
2021/11/01 04:36:40;;;;;;;;;;;;;;;18.99;68.16;98874.66;2082919;28;19970;-66
2021/11/01 04:37:43;;;;;;;;;;;;;;;18.99;68.08;98877.38;2082446;28;19917;-65
2021/11/01 04:40:01;;;;;;;;;;;;;;;18.99;68.22;98880.13;2084438;28;19914;-65
2021/11/01 04:42:56;;;;;;;;;;;;;;;18.98;68.12;98881.13;2081626;28;19917;-66
2021/11/01 04:53:59;;;;;;;;;;;;;;;18.98;68.07;98895.63;2083497;28;19924;-66
2021/11/01 04:55:00;;;;;;;;;;;;;;;18.98;68.10;98892.06;2081970;28;19916;-65
2021/11/01 04:56:00;;;;;;;;;;;;;;;18.97;68.11;98891.19;2083746;28;20320;-66
2021/11/01 04:57:01;;;;;;;;;;;;;;;18.98;68.15;98898.34;2076997;28;19927;-65
2021/11/01 04:58:02;;;;;;;;;;;;;;;18.97;68.08;98888.47;2083941;28;19944;-66
2021/11/01 04:59:03;;;;;;;;;;;;;;;18.97;68.13;98891.19;2083064;28;20083;-66
2021/11/01 05:00:05;;;;;;;;;;;;;;;18.98;68.17;98892.06;2082186;28;19969;-65
2021/11/01 05:01:05;;;;;;;;;;;;;;;18.97;68.16;98890.38;2083324;28;19916;-65
2021/11/01 05:02:05;;;;;;;;;;;;;;;18.98;68.10;98903.81;2082580;28;19969;-66
2021/11/01 05:04:27;;;;;;;;;;;;;;;18.98;68.06;98901.09;2083090;28;19924;-66
2021/11/01 05:05:27;;;;;;;;;;;;;;;18.96;68.10;98894.97;2084229;28;19917;-66
2021/11/01 05:06:27;;;;;;;;;;;;;;;18.98;68.15;98892.06;2082596;28;20219;-66
2021/11/01 05:07:28;;;;;;;;;;;;;;;18.96;68.04;98897.72;2082493;28;19942;-65
2021/11/01 05:08:38;;;;;;;;;;;;;;;18.97;68.19;98895.81;2081949;28;20013;-65
2021/11/01 05:09:58;;;;;;;;;;;;;;;18.97;68.15;98896.66;2073016;28;20295;-66
2021/11/01 05:11:03;;;;;;;;;;;;;;;18.97;68.16;98890.38;2077105;28;20060;-66
2021/11/01 05:13:27;;;;;;;;;;;;;;;18.96;68.14;98894.97;2077581;28;20086;-65
2021/11/01 05:14:40;;;;;;;;;;;;;;;18.96;68.17;98894.09;2077295;28;19935;-65
2021/11/01 05:15:49;;;;;;;;;;;;;;;18.95;68.19;98897.88;2080676;28;19920;-65
2021/11/01 05:17:02;;;;;;;;;;;;;;;18.94;68.28;98902.50;2082221;28;20406;-65
2021/11/01 05:19:27;;;;;;;;;;;;;;;18.95;68.17;98908.78;2082167;28;20011;-66
2021/11/01 05:20:37;;;;;;;;;;;;;;;18.94;68.29;98907.09;2068256;28;19917;-65
2021/11/01 05:22:49;;;;;;;;;;;;;;;18.94;68.18;98901.66;2085444;28;20004;-65
2021/11/01 05:23:56;;;;;;;;;;;;;;;18.93;68.19;98900.78;2083006;28;19916;-66
2021/11/01 05:26:06;;;;;;;;;;;;;;;18.94;68.19;98905.22;2072239;28;19920;-66
2021/11/01 05:29:19;;;;;;;;;;;;;;;18.94;68.13;98907.09;2080138;28;19971;-66
2021/11/01 05:30:42;;;;;;;;;;;;;;;18.93;68.28;98900.78;2071061;28;19925;-64
2021/11/01 05:31:46;;;;;;;;;;;;;;;18.93;68.16;98908.97;2073020;28;19920;-66
2021/11/01 05:34:17;;;;;;;;;;;;;;;18.93;68.20;98910.84;2065723;28;19921;-66
2021/11/01 05:35:17;;;;;;;;;;;;;;;18.93;68.11;98910.84;2081485;28;20300;-66
2021/11/01 05:36:18;;;;;;;;;;;;;;;18.92;68.08;98910.00;2083698;28;19920;-65
2021/11/01 05:37:19;;;;;;;;;;;;;;;18.93;68.15;98916.31;2083239;28;19989;-65
2021/11/01 05:38:19;;;;;;;;;;;;;;;18.92;68.12;98915.47;2082044;28;19917;-65
2021/11/01 05:39:19;;;;;;;;;;;;;;;18.92;68.17;98915.47;2083045;28;19952;-65
2021/11/01 05:40:19;;;;;;;;;;;;;;;18.92;68.14;98911.88;2082519;28;19924;-65
2021/11/01 05:41:20;;;;;;;;;;;;;;;18.92;68.15;98910.00;2082326;28;19927;-65
2021/11/01 05:42:21;;;;;;;;;;;;;;;18.92;68.14;98920.09;2082062;28;19931;-66
2021/11/01 05:43:21;;;;;;;;;;;;;;;18.92;68.17;98918.19;2081090;28;20043;-65
2021/11/01 05:44:22;;;;;;;;;;;;;;;18.92;68.11;98922.81;2079509;28;19928;-66
2021/11/01 05:45:22;;;;;;;;;;;;;;;18.92;68.11;98920.09;2077689;28;19917;-66
2021/11/01 05:46:23;;;;;;;;;;;;;;;18.92;68.14;98920.94;2082284;28;19916;-66
2021/11/01 05:47:24;;;;;;;;;;;;;;;18.93;68.14;98921.78;2081161;28;19916;-66
2021/11/01 05:48:24;;;;;;;;;;;;;;;18.92;68.07;98929.13;2083071;28;19966;-66
2021/11/01 05:49:24;;;;;;;;;;;;;;;18.92;68.05;98923.66;2080923;28;19916;-66
2021/11/01 05:50:27;;;;;;;;;;;;;;;18.92;68.14;98931.84;2080175;28;19909;-66
2021/11/01 05:51:29;;;;;;;;;;;;;;;18.92;68.20;98931.00;2083604;28;19912;-66
2021/11/01 05:52:30;;;;;;;;;;;;;;;18.92;68.13;98931.00;2082016;28;20417;-65
2021/11/01 05:53:36;;;;;;;;;;;;;;;18.92;68.15;98931.00;2083054;28;19920;-66
2021/11/01 05:54:36;;;;;;;;;;;;;;;18.92;68.13;98933.75;2080952;28;19913;-66